createdAt,value
2023-04-18T00:01:32.394Z,17.53
2023-04-18T00:03:59.195Z,18.33
2023-04-18T00:06:25.987Z,16.07
2023-04-18T00:08:52.673Z,17.50
2023-04-18T00:11:19.305Z,18.73
2023-04-18T00:13:47.315Z,18.47
2023-04-18T00:16:14.553Z,19.93
2023-04-18T00:18:41.269Z,22.60
2023-04-18T00:21:08.630Z,20.67
2023-04-18T00:23:36.000Z,20.60
2023-04-18T00:26:03.054Z,21.07
2023-04-18T00:28:29.739Z,22.37
2023-04-18T00:30:56.514Z,20.73
2023-04-18T00:33:23.232Z,27.20
2023-04-18T00:35:49.879Z,25.87
2023-04-18T00:38:16.600Z,23.73
2023-04-18T00:40:43.373Z,22.50
2023-04-18T00:43:12.437Z,21.87
2023-04-18T00:45:39.042Z,23.43
2023-04-18T00:48:05.770Z,24.47
2023-04-18T00:50:32.654Z,23.87
2023-04-18T00:52:59.480Z,21.87
2023-04-18T00:55:26.211Z,22.93
2023-04-18T00:57:53.296Z,23.97
2023-04-18T01:00:19.951Z,22.37
2023-04-18T01:02:47.878Z,22.60
2023-04-18T01:05:14.669Z,24.97
2023-04-18T01:07:41.598Z,25.57
2023-04-18T01:10:10.052Z,23.30
2023-04-18T01:12:37.599Z,23.87
2023-04-18T01:15:05.664Z,24.60
2023-04-18T01:17:34.448Z,23.03
2023-04-18T01:20:02.274Z,25.77
2023-04-18T01:22:30.612Z,23.80
2023-04-18T01:24:57.286Z,24.50
2023-04-18T01:27:24.008Z,23.40
2023-04-18T01:29:50.651Z,23.47
2023-04-18T01:32:20.086Z,23.17
2023-04-18T01:34:46.816Z,25.23
2023-04-18T01:37:13.505Z,22.67
2023-04-18T01:39:40.193Z,25.73
2023-04-18T01:42:06.810Z,23.40
2023-04-18T01:44:33.434Z,25.47
2023-04-18T01:47:00.153Z,22.13
2023-04-18T01:49:26.856Z,24.23
2023-04-18T01:51:53.489Z,22.70
2023-04-18T01:54:20.122Z,23.53
2023-04-18T01:56:46.724Z,22.27
2023-04-18T01:59:13.369Z,22.00
2023-04-18T02:01:40.397Z,20.83
2023-04-18T02:04:07.131Z,22.80
2023-04-18T02:06:33.849Z,21.77
2023-04-18T02:09:00.603Z,22.40
2023-04-18T02:11:27.242Z,20.87
2023-04-18T02:13:53.899Z,22.73
2023-04-18T02:16:20.693Z,21.90
2023-04-18T02:18:47.475Z,21.10
2023-04-18T02:21:14.117Z,22.13
2023-04-18T02:23:40.723Z,23.93
2023-04-18T02:26:07.333Z,22.17
2023-04-18T02:28:34.169Z,22.80
2023-04-18T02:31:01.130Z,21.27
2023-04-18T02:33:28.032Z,23.57
2023-04-18T02:35:54.629Z,22.03
2023-04-18T02:38:21.419Z,22.87
2023-04-18T02:40:48.031Z,20.73
2023-04-18T02:43:14.674Z,21.80
2023-04-18T02:45:41.594Z,21.40
2023-04-18T02:48:08.328Z,21.70
2023-04-18T02:50:35.490Z,20.97
2023-04-18T02:53:02.161Z,22.90
2023-04-18T02:55:28.929Z,21.37
2023-04-18T02:57:56.979Z,21.17
2023-04-18T03:00:23.781Z,20.10
2023-04-18T03:02:50.830Z,20.40
2023-04-18T03:05:17.552Z,20.37
2023-04-18T03:07:44.190Z,20.40
2023-04-18T03:10:10.943Z,21.23
2023-04-18T03:12:37.573Z,21.87
2023-04-18T03:15:04.527Z,20.40
2023-04-18T03:17:31.397Z,18.87
2023-04-18T03:19:58.230Z,18.17
2023-04-18T03:22:24.998Z,18.27
2023-04-18T03:24:51.702Z,19.53
2023-04-18T03:27:18.587Z,18.57
2023-04-18T03:29:45.304Z,18.97
2023-04-18T03:32:12.566Z,17.77
2023-04-18T03:34:39.217Z,17.73
2023-04-18T03:37:06.034Z,18.37
2023-04-18T03:39:32.693Z,18.70
2023-04-18T03:41:59.320Z,18.47
2023-04-18T03:44:26.010Z,15.57
2023-04-18T03:46:52.830Z,17.93
2023-04-18T03:49:19.532Z,16.57
2023-04-18T03:51:49.773Z,17.87
2023-04-18T03:54:17.126Z,18.30
2023-04-18T03:56:44.565Z,17.90
2023-04-18T03:59:11.792Z,16.63
2023-04-18T04:01:38.580Z,16.00
2023-04-18T04:04:05.499Z,17.93
2023-04-18T04:06:32.480Z,16.40
2023-04-18T04:08:59.127Z,16.30
2023-04-18T04:11:26.052Z,15.67
2023-04-18T04:13:52.887Z,16.27
2023-04-18T04:16:19.680Z,16.10
2023-04-18T04:18:46.337Z,16.90
2023-04-18T04:21:12.994Z,16.57
2023-04-18T04:23:42.276Z,16.50
2023-04-18T04:26:09.111Z,15.93
2023-04-18T04:28:36.076Z,16.80
2023-04-18T04:31:06.797Z,16.37
2023-04-18T04:33:33.531Z,15.17
2023-04-18T04:36:01.220Z,15.80
2023-04-18T04:38:30.700Z,16.57
2023-04-18T04:40:58.185Z,15.93
2023-04-18T04:43:26.032Z,15.10
2023-04-18T04:45:53.146Z,14.87
2023-04-18T04:48:21.910Z,15.80
2023-04-18T04:50:56.875Z,14.70
2023-04-18T04:53:25.432Z,15.70
2023-04-18T04:55:52.336Z,14.83
2023-04-18T04:58:19.509Z,15.70
2023-04-18T05:00:46.236Z,14.87
2023-04-18T05:03:13.033Z,15.37
2023-04-18T05:05:39.887Z,14.80
2023-04-18T05:08:06.568Z,16.10
2023-04-18T05:10:34.682Z,16.00
2023-04-18T05:13:01.298Z,15.40
2023-04-18T05:15:28.064Z,15.57
2023-04-18T05:17:54.773Z,13.00
2023-04-18T05:20:21.620Z,13.70
2023-04-18T05:22:48.372Z,13.50
2023-04-18T05:25:15.708Z,12.50
2023-04-18T05:27:43.583Z,13.30
2023-04-18T05:30:10.658Z,12.20
2023-04-18T05:32:39.012Z,13.50
2023-04-18T05:35:09.269Z,12.20
2023-04-18T05:37:36.152Z,11.80
2023-04-18T05:40:04.945Z,10.93
2023-04-18T05:42:31.568Z,10.60
2023-04-18T05:44:58.187Z,11.10
2023-04-18T05:47:26.846Z,10.30
2023-04-18T05:49:53.701Z,9.40
2023-04-18T05:52:20.530Z,10.10
2023-04-18T05:54:47.148Z,9.77
2023-04-18T05:57:13.847Z,10.03
2023-04-18T05:59:40.445Z,9.20
2023-04-18T06:02:13.206Z,8.80
2023-04-18T06:04:41.994Z,11.57
2023-04-18T06:07:09.823Z,9.50
2023-04-18T06:09:36.478Z,9.50
2023-04-18T06:12:03.414Z,8.67
2023-04-18T06:14:30.093Z,8.90
2023-04-18T06:16:56.787Z,8.33
2023-04-18T06:19:23.529Z,8.90
2023-04-18T06:21:50.721Z,8.50
2023-04-18T06:24:17.391Z,7.10
2023-04-18T06:26:43.997Z,7.73
2023-04-18T06:29:10.669Z,8.53
2023-04-18T06:31:37.304Z,7.50
2023-04-18T06:34:03.934Z,7.80
2023-04-18T06:36:31.459Z,8.93
2023-04-18T06:38:58.110Z,7.63
2023-04-18T06:41:24.777Z,9.97
2023-04-18T06:44:02.888Z,8.43
2023-04-18T06:46:38.038Z,8.07
2023-04-18T06:49:04.701Z,6.53
2023-04-18T06:51:31.674Z,7.70
2023-04-18T06:53:58.436Z,7.50
2023-04-18T06:56:26.070Z,8.10
2023-04-18T06:58:52.865Z,8.33
2023-04-18T07:01:19.948Z,7.50
2023-04-18T07:03:46.632Z,7.30
2023-04-18T07:06:13.411Z,7.80
2023-04-18T07:08:40.015Z,7.93
2023-04-18T07:11:06.781Z,8.33
2023-04-18T07:13:33.553Z,7.37
2023-04-18T07:16:01.240Z,7.40
2023-04-18T07:18:37.473Z,7.80
2023-04-18T07:21:07.756Z,7.43
2023-04-18T07:23:35.078Z,8.27
2023-04-18T07:26:02.834Z,7.60
2023-04-18T07:28:31.093Z,8.17
2023-04-18T07:30:57.981Z,7.90
2023-04-18T07:33:25.381Z,7.70
2023-04-18T07:35:53.005Z,9.03
2023-04-18T07:38:20.014Z,7.30
2023-04-18T07:40:46.651Z,8.23
2023-04-18T07:43:13.390Z,7.67
2023-04-18T07:45:43.026Z,7.90
2023-04-18T07:48:09.754Z,7.40
2023-04-18T07:50:36.391Z,7.13
2023-04-18T07:53:03.324Z,7.40
2023-04-18T07:55:30.657Z,7.50
2023-04-18T07:57:57.284Z,7.20
2023-04-18T08:00:24.664Z,6.50
2023-04-18T08:02:51.581Z,7.73
2023-04-18T08:05:21.460Z,6.83
2023-04-18T08:07:48.093Z,7.30
2023-04-18T08:10:14.860Z,7.30
2023-04-18T08:12:41.974Z,7.30
2023-04-18T08:15:09.195Z,6.43
2023-04-18T08:17:35.982Z,6.70
2023-04-18T08:20:07.106Z,7.40
2023-04-18T08:22:34.111Z,7.00
2023-04-18T08:25:04.819Z,6.27
2023-04-18T08:27:32.687Z,8.97
2023-04-18T08:29:59.496Z,10.67
2023-04-18T08:32:26.327Z,7.07
2023-04-18T08:34:53.006Z,5.90
2023-04-18T08:37:19.657Z,5.93
2023-04-18T08:39:46.273Z,7.77
2023-04-18T08:42:21.510Z,7.70
2023-04-18T08:44:48.503Z,7.27
2023-04-18T08:47:15.524Z,7.90
2023-04-18T08:49:46.640Z,7.20
2023-04-18T08:52:14.704Z,8.57
2023-04-18T08:54:42.784Z,7.30
2023-04-18T08:57:12.455Z,7.80
2023-04-18T08:59:40.036Z,6.13
2023-04-18T09:02:08.909Z,7.00
2023-04-18T09:04:45.564Z,7.60
2023-04-18T09:07:14.164Z,6.50
2023-04-18T09:09:48.103Z,6.67
2023-04-18T09:12:18.324Z,6.67
2023-04-18T09:14:57.716Z,7.20
2023-04-18T09:17:34.813Z,6.90
2023-04-18T09:20:05.251Z,7.93
2023-04-18T09:22:50.460Z,7.17
2023-04-18T09:25:40.108Z,7.70
2023-04-18T09:28:27.074Z,7.40
2023-04-18T09:30:58.904Z,7.83
2023-04-18T09:33:28.271Z,7.80
2023-04-18T09:35:56.982Z,7.33
2023-04-18T09:38:40.210Z,7.77
2023-04-18T09:41:11.539Z,6.63
2023-04-18T09:43:38.739Z,7.80
2023-04-18T09:46:05.889Z,8.07
2023-04-18T09:48:32.537Z,7.63
2023-04-18T09:51:04.063Z,6.60
2023-04-18T09:53:31.345Z,7.37
2023-04-18T09:55:58.328Z,7.50
2023-04-18T09:58:29.112Z,8.03
2023-04-18T10:00:56.869Z,6.70
2023-04-18T10:03:32.613Z,7.63
2023-04-18T10:05:59.496Z,7.73
2023-04-18T10:08:27.220Z,5.70
2023-04-18T10:10:55.969Z,7.27
2023-04-18T10:13:23.868Z,8.03
2023-04-18T10:15:52.354Z,6.43
2023-04-18T10:18:23.554Z,6.37
2023-04-18T10:20:50.234Z,5.37
2023-04-18T10:23:32.245Z,7.00
2023-04-18T10:25:59.393Z,5.80
2023-04-18T10:28:27.657Z,5.20
2023-04-18T10:30:56.652Z,4.77
2023-04-18T10:33:33.637Z,4.80
2023-04-18T10:36:08.381Z,6.23
2023-04-18T10:38:38.701Z,5.90
2023-04-18T10:41:48.801Z,6.70
2023-04-18T10:44:19.564Z,5.90
2023-04-18T10:46:52.074Z,6.37
2023-04-18T10:49:18.786Z,5.57
2023-04-18T10:51:46.450Z,5.33
2023-04-18T10:54:24.264Z,6.10
2023-04-18T10:56:55.429Z,5.83
2023-04-18T10:59:23.931Z,5.47
2023-04-18T11:01:56.063Z,6.87
2023-04-18T11:04:24.342Z,7.77
2023-04-18T11:06:57.160Z,7.53
2023-04-18T11:09:24.326Z,7.03
2023-04-18T11:12:05.311Z,7.90
2023-04-18T11:14:42.852Z,7.07
2023-04-18T11:17:36.149Z,8.10
2023-04-18T11:20:08.751Z,8.03
2023-04-18T11:22:53.134Z,7.63
2023-04-18T11:25:25.206Z,9.33
2023-04-18T11:27:52.014Z,6.63
2023-04-18T11:30:18.876Z,7.73
2023-04-18T11:32:45.616Z,6.50
2023-04-18T11:35:13.790Z,7.20
2023-04-18T11:37:41.901Z,6.90
2023-04-18T11:40:13.512Z,6.47
2023-04-18T11:42:41.136Z,6.40
2023-04-18T11:45:12.866Z,8.00
2023-04-18T11:47:41.801Z,5.90
2023-04-18T11:50:09.922Z,5.30
2023-04-18T11:52:37.234Z,5.93
2023-04-18T11:55:25.028Z,5.90
2023-04-18T11:57:52.648Z,5.57
2023-04-18T12:00:30.803Z,5.43
2023-04-18T12:02:59.170Z,5.17
2023-04-18T12:05:31.666Z,5.90
2023-04-18T12:08:19.215Z,5.57
2023-04-18T12:10:50.761Z,5.07
2023-04-18T12:13:18.268Z,5.37
2023-04-18T12:15:46.213Z,4.67
2023-04-18T12:18:15.104Z,5.43
2023-04-18T12:20:52.151Z,5.90
2023-04-18T12:23:35.985Z,5.03
2023-04-18T12:26:14.537Z,5.50
2023-04-18T12:28:45.966Z,4.40
2023-04-18T12:31:12.845Z,5.00
2023-04-18T12:33:39.554Z,4.33
2023-04-18T12:36:08.256Z,6.00
2023-04-18T12:38:35.812Z,5.53
2023-04-18T12:41:02.640Z,4.63
2023-04-18T12:43:29.325Z,4.93
2023-04-18T12:45:56.394Z,4.50
2023-04-18T12:48:23.039Z,5.20
2023-04-18T12:50:49.715Z,5.03
2023-04-18T12:53:16.872Z,4.07
2023-04-18T12:55:43.596Z,5.13
2023-04-18T12:58:10.192Z,5.00
2023-04-18T13:00:37.223Z,5.00
2023-04-18T13:03:04.669Z,3.57
2023-04-18T13:05:34.081Z,4.13
2023-04-18T13:10:30.962Z,4.43
2023-04-18T13:12:57.582Z,4.30
2023-04-18T13:15:24.324Z,3.80
2023-04-18T13:17:59.598Z,5.50
2023-04-18T13:20:26.746Z,3.97
2023-04-18T13:22:53.402Z,4.60
2023-04-18T13:25:20.218Z,4.20
2023-04-18T13:27:46.933Z,3.83
2023-04-18T13:30:13.652Z,4.43
2023-04-18T13:32:41.711Z,5.27
2023-04-18T13:35:11.026Z,4.47
2023-04-18T13:37:38.516Z,4.07
2023-04-18T13:40:06.506Z,4.63
2023-04-18T13:42:37.107Z,4.30
2023-04-18T13:45:04.158Z,4.87
2023-04-18T13:47:30.893Z,4.40
2023-04-18T13:49:57.852Z,4.53
2023-04-18T13:52:24.707Z,4.30
2023-04-18T13:54:51.319Z,4.50
2023-04-18T13:57:17.962Z,4.20
2023-04-18T13:59:44.642Z,4.47
2023-04-18T14:02:11.440Z,5.07
2023-04-18T14:04:38.378Z,7.70
2023-04-18T14:07:06.267Z,3.90
2023-04-18T14:09:33.506Z,4.63
2023-04-18T14:12:00.181Z,4.70
2023-04-18T14:14:26.862Z,5.00
2023-04-18T14:16:54.031Z,5.23
2023-04-18T14:19:20.922Z,4.87
2023-04-18T14:21:48.472Z,6.13
2023-04-18T14:24:15.243Z,4.57
2023-04-18T14:26:42.141Z,4.77
2023-04-18T14:29:08.791Z,4.17
2023-04-18T14:31:35.500Z,5.07
2023-04-18T14:34:02.342Z,5.23
2023-04-18T14:36:29.030Z,5.63
2023-04-18T14:38:55.815Z,5.33
2023-04-18T14:41:22.405Z,4.50
2023-04-18T14:43:49.182Z,5.73
2023-04-18T14:46:19.466Z,5.10
2023-04-18T14:48:47.150Z,5.43
2023-04-18T14:51:16.112Z,4.90
2023-04-18T14:53:43.092Z,8.27
2023-04-18T14:56:09.761Z,5.10
2023-04-18T14:58:36.757Z,5.20
2023-04-18T15:01:04.288Z,6.00
2023-04-18T15:03:31.238Z,5.40
2023-04-18T15:05:58.171Z,6.00
2023-04-18T15:08:24.855Z,6.03
2023-04-18T15:10:51.462Z,5.37
2023-04-18T15:13:18.207Z,5.33
2023-04-18T15:15:51.975Z,4.97
2023-04-18T15:18:18.636Z,6.20
2023-04-18T15:20:45.569Z,5.80
2023-04-18T15:23:13.721Z,5.07
2023-04-18T15:25:41.304Z,4.80
2023-04-18T15:28:08.032Z,5.67
2023-04-18T15:30:34.657Z,5.40
2023-04-18T15:33:02.294Z,5.10
2023-04-18T15:35:29.082Z,4.93
2023-04-18T15:37:57.457Z,5.47
2023-04-18T15:40:24.320Z,4.67
2023-04-18T15:42:53.422Z,14.47
2023-04-18T15:45:20.935Z,5.03
2023-04-18T15:47:47.761Z,5.73
2023-04-18T15:50:15.949Z,8.50
2023-04-18T15:52:42.711Z,4.50
2023-04-18T15:55:12.336Z,6.13
2023-04-18T15:57:39.415Z,4.53
2023-04-18T16:00:11.800Z,5.63
2023-04-18T16:02:38.616Z,4.37
2023-04-18T16:05:05.739Z,4.60
2023-04-18T16:07:32.357Z,4.10
2023-04-18T16:09:58.975Z,5.23
2023-04-18T16:12:25.688Z,5.13
2023-04-18T16:14:52.257Z,4.10
2023-04-18T16:17:18.876Z,5.33
2023-04-18T16:19:45.480Z,5.00
2023-04-18T16:22:12.397Z,5.27
2023-04-18T16:24:40.883Z,4.13
2023-04-18T16:27:08.726Z,4.57
2023-04-18T16:29:35.407Z,4.63
2023-04-18T16:32:02.073Z,5.67
2023-04-18T16:34:28.735Z,7.33
2023-04-18T16:36:55.766Z,8.10
2023-04-18T16:39:22.594Z,4.33
2023-04-18T16:41:49.302Z,4.43
2023-04-18T16:44:16.114Z,5.63
2023-04-18T16:46:43.088Z,4.73
2023-04-18T16:49:09.784Z,4.93
2023-04-18T16:51:38.010Z,7.47
2023-04-18T16:54:08.608Z,5.37
2023-04-18T16:56:35.513Z,4.93
2023-04-18T16:59:02.637Z,5.00
2023-04-18T17:01:29.691Z,5.00
2023-04-18T17:03:57.899Z,4.10
2023-04-18T17:06:25.017Z,6.30
2023-04-18T17:08:53.456Z,5.17
2023-04-18T17:11:20.979Z,6.03
2023-04-18T17:13:48.225Z,4.40
2023-04-18T17:16:14.889Z,4.27
2023-04-18T17:18:41.678Z,4.37
2023-04-18T17:21:12.206Z,4.13
2023-04-18T17:23:42.533Z,5.07
2023-04-18T17:26:09.787Z,4.40
2023-04-18T17:28:36.685Z,6.03
2023-04-18T17:31:03.920Z,4.20
2023-04-18T17:33:31.224Z,4.10
2023-04-18T17:35:58.367Z,4.93
2023-04-18T17:38:25.172Z,4.20
2023-04-18T17:41:02.863Z,5.17
2023-04-18T17:43:29.588Z,4.60
2023-04-18T17:46:00.169Z,4.60
2023-04-18T17:48:26.978Z,5.20
2023-04-18T17:50:53.635Z,4.77
2023-04-18T17:53:20.766Z,4.30
2023-04-18T17:55:50.405Z,4.30
2023-04-18T17:58:16.996Z,4.50
2023-04-18T18:00:43.733Z,4.10
2023-04-18T18:03:14.037Z,4.23
2023-04-18T18:05:42.028Z,4.73
2023-04-18T18:08:08.777Z,3.90
2023-04-18T18:10:35.583Z,4.90
2023-04-18T18:13:02.253Z,9.03
2023-04-18T18:15:29.078Z,6.77
2023-04-18T18:17:55.957Z,5.00
2023-04-18T18:20:22.889Z,4.77
2023-04-18T18:22:49.832Z,5.53
2023-04-18T18:25:16.590Z,5.50
2023-04-18T18:27:43.237Z,4.23
2023-04-18T18:30:10.223Z,7.53
2023-04-18T18:32:36.900Z,6.40
2023-04-18T18:35:05.544Z,4.70
2023-04-18T18:37:32.836Z,4.73
2023-04-18T18:39:59.900Z,5.50
2023-04-18T18:42:26.684Z,5.10
2023-04-18T18:44:53.288Z,5.00
2023-04-18T18:47:19.959Z,5.60
2023-04-18T18:49:47.405Z,5.40
2023-04-18T18:52:14.188Z,7.17
2023-04-18T18:54:40.852Z,5.70
2023-04-18T18:57:08.555Z,5.20
2023-04-18T18:59:35.725Z,5.50
2023-04-18T19:02:02.571Z,18.00
2023-04-18T19:04:29.559Z,6.87
2023-04-18T19:06:56.226Z,5.87
2023-04-18T19:09:22.844Z,5.83
2023-04-18T19:11:49.717Z,7.07
2023-04-18T19:14:16.429Z,5.43
2023-04-18T19:16:43.140Z,6.30
2023-04-18T19:19:10.128Z,6.17
2023-04-18T19:21:36.920Z,6.67
2023-04-18T19:24:03.618Z,6.40
2023-04-18T19:26:30.307Z,6.50
2023-04-18T19:28:56.985Z,6.10
2023-04-18T19:31:23.694Z,6.27
2023-04-18T19:33:50.796Z,5.83
2023-04-18T19:36:17.470Z,5.87
2023-04-18T19:38:44.052Z,6.40
2023-04-18T19:41:10.656Z,6.30
2023-04-18T19:43:38.432Z,6.07
2023-04-18T19:46:05.159Z,6.07
2023-04-18T19:48:31.932Z,6.00
2023-04-18T19:50:58.684Z,7.20
2023-04-18T19:53:25.822Z,6.33
2023-04-18T19:55:54.792Z,5.40
2023-04-18T19:58:35.805Z,6.80
2023-04-18T20:01:02.587Z,6.60
2023-04-18T20:03:29.583Z,7.00
2023-04-18T20:05:56.372Z,7.00
2023-04-18T20:08:23.067Z,6.10
2023-04-18T20:10:49.709Z,6.57
2023-04-18T20:13:16.388Z,6.00
2023-04-18T20:15:42.996Z,35.23
2023-04-18T20:18:09.762Z,13.63
2023-04-18T20:20:36.810Z,6.00
2023-04-18T20:23:03.531Z,6.83
2023-04-18T20:25:30.243Z,7.10
2023-04-18T20:27:57.016Z,7.30
2023-04-18T20:30:24.141Z,5.67
2023-04-18T20:32:51.216Z,5.70
2023-04-18T20:35:19.782Z,6.63
2023-04-18T20:37:46.397Z,6.30
2023-04-18T20:40:12.998Z,6.53
2023-04-18T20:42:39.656Z,7.03
2023-04-18T20:45:10.770Z,6.70
2023-04-18T20:47:37.670Z,7.10
2023-04-18T20:50:04.863Z,6.93
2023-04-18T20:52:31.467Z,7.07
2023-04-18T20:54:58.038Z,7.10
2023-04-18T20:57:24.662Z,7.93
2023-04-18T20:59:51.394Z,7.70
2023-04-18T21:02:18.104Z,8.63
2023-04-18T21:04:46.665Z,6.53
2023-04-18T21:07:13.330Z,6.67
2023-04-18T21:09:39.988Z,7.27
2023-04-18T21:12:06.769Z,6.20
2023-04-18T21:14:33.392Z,7.23
2023-04-18T21:17:00.343Z,7.07
2023-04-18T21:19:26.944Z,7.70
2023-04-18T21:21:53.559Z,6.47
2023-04-18T21:24:20.190Z,6.60
2023-04-18T21:26:46.826Z,6.87
2023-04-18T21:29:13.429Z,7.50
2023-04-18T21:31:40.697Z,7.27
2023-04-18T21:34:07.467Z,6.30
2023-04-18T21:36:34.136Z,7.10
2023-04-18T21:39:01.420Z,5.77
2023-04-18T21:41:28.158Z,5.90
2023-04-18T21:43:54.976Z,5.80
2023-04-18T21:46:21.792Z,5.97
2023-04-18T21:48:49.228Z,6.60
2023-04-18T21:51:16.806Z,6.57
2023-04-18T21:53:43.988Z,7.17
2023-04-18T21:56:11.054Z,6.27
2023-04-18T21:58:38.042Z,6.57
2023-04-18T22:01:04.827Z,5.83
2023-04-18T22:03:34.118Z,6.57
2023-04-18T22:06:01.682Z,5.23
2023-04-18T22:08:29.599Z,5.80
2023-04-18T22:10:58.277Z,4.70
2023-04-18T22:13:30.154Z,5.73
2023-04-18T22:15:58.188Z,6.67
2023-04-18T22:18:25.213Z,6.80
2023-04-18T22:20:53.528Z,5.97
2023-04-18T22:23:20.415Z,6.20
2023-04-18T22:25:47.214Z,6.33
2023-04-18T22:28:13.915Z,21.83
2023-04-18T22:30:40.564Z,12.47
2023-04-18T22:33:07.215Z,7.00
2023-04-18T22:35:33.800Z,6.03
2023-04-18T22:38:00.697Z,5.67
2023-04-18T22:40:27.314Z,6.43
2023-04-18T22:42:54.384Z,6.80
2023-04-18T22:45:21.468Z,5.30
2023-04-18T22:47:48.238Z,6.40
2023-04-18T22:50:15.222Z,18.60
2023-04-18T22:52:41.930Z,6.33
2023-04-18T22:55:09.305Z,6.80
2023-04-18T22:57:36.210Z,6.03
2023-04-18T23:00:05.120Z,6.47
2023-04-18T23:02:32.348Z,6.57
2023-04-18T23:04:59.731Z,6.80
2023-04-18T23:07:26.467Z,5.77
2023-04-18T23:09:53.096Z,6.27
2023-04-18T23:12:19.875Z,4.80
2023-04-18T23:14:46.549Z,18.30
2023-04-18T23:17:13.184Z,5.10
2023-04-18T23:19:40.070Z,6.03
2023-04-18T23:22:06.695Z,6.97
2023-04-18T23:24:33.306Z,5.40
2023-04-18T23:26:59.907Z,5.70
2023-04-18T23:29:26.512Z,5.73
2023-04-18T23:31:53.248Z,5.90
2023-04-18T23:34:19.895Z,5.27
2023-04-18T23:36:46.618Z,6.30
2023-04-18T23:39:13.470Z,5.53
2023-04-18T23:41:40.064Z,5.70
2023-04-18T23:44:06.694Z,5.07
2023-04-18T23:46:35.701Z,5.40
2023-04-18T23:49:03.220Z,5.67
2023-04-18T23:51:29.891Z,6.70
2023-04-18T23:53:56.774Z,15.00
2023-04-18T23:56:23.500Z,6.97
2023-04-18T23:58:50.347Z,5.30
